Ana Sayfa
METAR-TAF:

METAR-TAF

Havaalanları :

Kars Harakani Havalimanı

Kars, Türkiye

Enlem: 40-36N, Boylam: 043-05E, yükseklik: 1775 m

Güncel hava durumu gözlemi

Rapor saat 22:50 UTC de 25 dakika önce yapıldı.
Rüzgar batı/kuzeybatıdan 3 kt
Sıcaklık -6°C
Nem 86%
Basınç 1020 hPa
Görüş mesafesi 10 km veya daha fazla
1500 m altında bulut yok ve kümülonimbus yok

METAR: LTCF 192250Z 29003KT CAVOK M06/M08 Q1020

Saat: 02:15 (23:15 UTC)

Tahmin

Rapor saat 19:40 UTC de 3 saat ve 35 dakika önce yapıldı.
Ayın 19'si saat 21 UTC'den ayın 20'si saat 06 UTC'ye kadar geçerli Tahmin
Rüzgar değişken yönden 2 kt
Görüş mesafesi 10 km veya daha fazla
1500 m altında bulut yok ve kümülonimbus yok

TAF: LTCF 191940Z 1921/2006 VRB02KT CAVOK

4.000'den fazla havaalanı için hava durumu gözlemleri ve tahminleri (METAR ve TAF raporları).

Kullanılabilir istasyonlar harita üzerinde sarı ve kırmızı noktalarla gösterilir.

İstasyonun adını görmek için fareyi noktanın üzerinde gezdirin.

Sonrasında hava gözlem ve tahminlerini görmek için tıklayın.

Haritayı değiştirmek için: yaklaştırmak için siyah artı işaretli yeşil düğmeye ve uzaklaştırmak için de eksi işaretli düğmeye hızla tıklayın; bitişik haritalar için yeşil okları kullanın.


METAR-TAF: